Time;durP1;ratioP1;P1;durP2;ratioP2;P2;SDS_P1;SDS_P2;PMS_P1;PMS_P2;Temp;Humidity;BMP_temperature;BMP_pressure;BME280_temperature;BME280_humidity;BME280_pressure;Samples;Min_cycle;Max_cycle;Signal;HPM_P1;HPM_P2
2023/12/31 00:02:02;;;;;;;;;;;6.80;87.30;;;;;;5108106;28;19923;-62
2023/12/31 00:04:35;;;;;;;;;;;6.90;87.30;;;;;;5107387;28;19924;-61
2023/12/31 00:07:08;;;;;;;;;;;6.90;87.20;;;;;;5109138;28;19924;-62
2023/12/31 00:09:41;;;;;;;;;;;6.90;87.20;;;;;;5105802;28;19924;-62
2023/12/31 00:12:15;;;;;;;;;;;6.90;87.20;;;;;;5084152;28;20242;-62
2023/12/31 00:14:49;;;;;;;;;;;6.80;87.40;;;;;;5105206;28;19934;-63
2023/12/31 00:17:22;;;;;;;;;;;6.80;87.50;;;;;;5109082;28;19934;-62
2023/12/31 00:19:55;;;;;;;;;;;6.80;87.50;;;;;;5107283;28;20065;-62
2023/12/31 00:22:28;;;;;;;;;;;6.80;87.60;;;;;;5106708;28;19932;-62
2023/12/31 00:25:01;;;;;;;;;;;6.80;87.60;;;;;;5109344;28;19928;-62
2023/12/31 00:27:35;;;;;;;;;;;6.80;87.50;;;;;;5107797;27;19934;-63
2023/12/31 00:30:09;;;;;;;;;;;6.90;87.50;;;;;;5109093;28;19994;-62
2023/12/31 00:32:43;;;;;;;;;;;6.90;87.30;;;;;;5084694;28;20382;-63
2023/12/31 00:35:16;;;;;;;;;;;6.90;87.20;;;;;;5090162;28;20385;-60
2023/12/31 00:37:49;;;;;;;;;;;6.90;87.20;;;;;;5109321;28;19924;-59
2023/12/31 00:40:23;;;;;;;;;;;6.90;87.20;;;;;;5107549;28;20011;-59
2023/12/31 00:42:57;;;;;;;;;;;6.90;87.40;;;;;;5100865;28;20297;-59
2023/12/31 00:45:31;;;;;;;;;;;6.80;87.80;;;;;;5104444;28;20370;-60
2023/12/31 00:48:04;;;;;;;;;;;6.80;87.70;;;;;;5109603;28;19996;-59
2023/12/31 00:50:37;;;;;;;;;;;6.90;87.50;;;;;;5088846;28;20496;-60
2023/12/31 00:53:11;;;;;;;;;;;6.90;87.50;;;;;;5102290;28;19928;-60
2023/12/31 00:55:44;;;;;;;;;;;6.90;87.40;;;;;;5108588;28;19924;-60
2023/12/31 00:58:19;;;;;;;;;;;7.00;87.50;;;;;;5087786;28;19985;-59
2023/12/31 01:00:52;;;;;;;;;;;7.00;87.50;;;;;;5086831;28;19951;-60
2023/12/31 01:03:25;;;;;;;;;;;7.00;87.50;;;;;;5087010;28;20018;-59
2023/12/31 01:06:04;;;;;;;;;;;6.90;87.50;;;;;;5091892;28;19983;-60
2023/12/31 01:08:37;;;;;;;;;;;6.90;87.60;;;;;;5089402;28;20298;-59
2023/12/31 01:11:10;;;;;;;;;;;6.90;87.60;;;;;;5086915;28;19950;-59
2023/12/31 01:13:44;;;;;;;;;;;7.00;87.60;;;;;;5086558;28;19947;-59
2023/12/31 01:16:18;;;;;;;;;;;7.00;87.50;;;;;;5087692;28;20418;-59
2023/12/31 01:18:51;;;;;;;;;;;7.00;87.50;;;;;;5084380;28;19924;-60
2023/12/31 01:21:25;;;;;;;;;;;7.00;87.50;;;;;;5085316;28;20009;-59
2023/12/31 01:23:58;;;;;;;;;;;7.00;87.50;;;;;;5084756;28;20016;-60
2023/12/31 01:26:31;;;;;;;;;;;7.00;87.50;;;;;;5088646;28;19951;-61
2023/12/31 01:29:05;;;;;;;;;;;6.90;87.40;;;;;;5088078;28;19935;-60
2023/12/31 01:31:39;;;;;;;;;;;6.80;87.30;;;;;;5087385;28;19924;-59
2023/12/31 01:34:12;;;;;;;;;;;6.80;87.30;;;;;;5086234;28;19924;-59
2023/12/31 01:36:45;;;;;;;;;;;6.80;87.20;;;;;;5086262;28;19932;-60
2023/12/31 01:39:18;;;;;;;;;;;6.80;87.10;;;;;;5088956;28;19924;-60
2023/12/31 01:41:51;;;;;;;;;;;6.80;87.00;;;;;;5107129;28;19971;-60
2023/12/31 01:44:25;;;;;;;;;;;6.70;87.00;;;;;;5088080;28;19928;-71
2023/12/31 01:46:59;;;;;;;;;;;6.70;87.00;;;;;;5086039;27;20012;-71
2023/12/31 01:49:33;;;;;;;;;;;6.60;87.10;;;;;;5088347;28;19928;-71
2023/12/31 01:52:06;;;;;;;;;;;6.60;87.00;;;;;;5088002;28;20014;-70
2023/12/31 01:54:33;;;;;;;;;;;6.60;86.90;;;;;;5088295;28;19934;-71
2023/12/31 01:57:06;;;;;;;;;;;6.60;86.90;;;;;;5083304;28;19967;-71
2023/12/31 01:59:41;;;;;;;;;;;6.60;86.80;;;;;;5085635;27;19947;-71
2023/12/31 02:02:15;;;;;;;;;;;6.60;86.70;;;;;;5090687;28;19970;-70
2023/12/31 02:04:48;;;;;;;;;;;6.60;86.70;;;;;;5087682;28;19931;-72
2023/12/31 02:07:22;;;;;;;;;;;6.60;86.80;;;;;;5082638;28;19927;-70
2023/12/31 02:09:55;;;;;;;;;;;6.50;86.70;;;;;;5088881;28;19991;-70
2023/12/31 02:12:28;;;;;;;;;;;6.50;86.70;;;;;;5088830;28;20398;-71
2023/12/31 02:15:02;;;;;;;;;;;6.50;86.70;;;;;;5108489;28;20003;-70
2023/12/31 02:17:36;;;;;;;;;;;6.40;86.60;;;;;;5103119;28;20336;-71
2023/12/31 02:20:09;;;;;;;;;;;6.50;86.60;;;;;;5092972;28;19977;-71
2023/12/31 02:22:43;;;;;;;;;;;6.50;86.60;;;;;;5108354;27;20287;-71
2023/12/31 02:25:19;;;;;;;;;;;6.50;86.50;;;;;;5110537;28;20290;-71
2023/12/31 02:27:53;;;;;;;;;;;6.40;86.50;;;;;;5108858;28;19930;-71
2023/12/31 02:30:26;;;;;;;;;;;6.40;86.50;;;;;;5110098;28;19928;-72
2023/12/31 02:32:53;;;;;;;;;;;6.40;86.60;;;;;;5087063;28;19934;-70
2023/12/31 02:35:26;;;;;;;;;;;6.30;86.60;;;;;;5092275;28;20294;-71
2023/12/31 02:37:59;;;;;;;;;;;6.30;86.60;;;;;;5110754;28;19928;-71
2023/12/31 02:40:32;;;;;;;;;;;6.30;86.60;;;;;;5107551;28;19927;-70
2023/12/31 02:43:06;;;;;;;;;;;6.30;86.70;;;;;;5099807;28;19935;-71
2023/12/31 02:45:40;;;;;;;;;;;6.30;86.60;;;;;;5106407;28;19924;-71
2023/12/31 02:48:13;;;;;;;;;;;6.30;86.70;;;;;;5109020;28;19923;-71
2023/12/31 02:50:46;;;;;;;;;;;6.30;86.70;;;;;;5108092;27;19928;-71
2023/12/31 02:53:19;;;;;;;;;;;6.20;86.70;;;;;;5093159;28;19924;-65
2023/12/31 02:55:52;;;;;;;;;;;6.20;86.50;;;;;;5092667;28;19923;-66
2023/12/31 02:58:26;;;;;;;;;;;6.20;86.70;;;;;;5091775;28;19950;-66
2023/12/31 03:01:00;;;;;;;;;;;6.20;86.90;;;;;;5091321;28;19955;-65
2023/12/31 03:03:33;;;;;;;;;;;6.20;86.70;;;;;;5110250;28;20011;-65
2023/12/31 03:06:06;;;;;;;;;;;6.20;86.70;;;;;;5110002;28;20015;-65
2023/12/31 03:08:40;;;;;;;;;;;6.10;86.70;;;;;;5109821;28;19924;-65
2023/12/31 03:11:13;;;;;;;;;;;6.10;86.80;;;;;;5091246;28;20394;-65
2023/12/31 03:13:47;;;;;;;;;;;6.10;86.80;;;;;;5109105;28;19931;-66
2023/12/31 03:16:21;;;;;;;;;;;6.10;86.60;;;;;;5092482;28;19977;-65
2023/12/31 03:19:00;;;;;;;;;;;6.10;86.60;;;;;;5087088;28;20005;-66
2023/12/31 03:21:34;;;;;;;;;;;6.10;86.60;;;;;;5079468;28;19935;-65
2023/12/31 03:24:07;;;;;;;;;;;6.20;86.60;;;;;;5109124;28;19931;-66
2023/12/31 03:26:41;;;;;;;;;;;6.20;86.60;;;;;;5091027;28;19927;-67
2023/12/31 03:29:15;;;;;;;;;;;6.20;86.50;;;;;;5076387;28;19932;-66
2023/12/31 03:31:49;;;;;;;;;;;6.20;86.50;;;;;;5099012;28;20350;-66
2023/12/31 03:34:24;;;;;;;;;;;6.20;86.50;;;;;;5110327;28;19939;-65
2023/12/31 03:36:57;;;;;;;;;;;6.20;86.50;;;;;;5106577;28;19927;-65
2023/12/31 03:39:30;;;;;;;;;;;6.30;86.40;;;;;;5088016;28;20415;-66
2023/12/31 03:42:03;;;;;;;;;;;6.30;86.30;;;;;;5108617;28;19924;-65
2023/12/31 03:44:37;;;;;;;;;;;6.20;86.20;;;;;;5107667;28;19927;-65
2023/12/31 03:47:11;;;;;;;;;;;6.10;86.30;;;;;;5108327;28;20315;-64
2023/12/31 03:49:45;;;;;;;;;;;6.10;86.40;;;;;;5108597;28;19928;-65
2023/12/31 03:52:18;;;;;;;;;;;6.00;86.50;;;;;;5089992;28;19930;-66
2023/12/31 03:54:51;;;;;;;;;;;6.00;86.40;;;;;;5109302;28;19924;-65
2023/12/31 03:57:25;;;;;;;;;;;5.90;86.40;;;;;;5106993;28;19969;-67
2023/12/31 03:59:53;;;;;;;;;;;6.00;86.30;;;;;;5108915;27;20284;-66
2023/12/31 04:02:27;;;;;;;;;;;5.90;86.30;;;;;;5109067;28;19927;-66
2023/12/31 04:05:00;;;;;;;;;;;5.90;86.30;;;;;;5103140;28;19931;-71
2023/12/31 04:07:40;;;;;;;;;;;5.90;86.20;;;;;;5089483;28;19928;-71
2023/12/31 04:10:13;;;;;;;;;;;5.90;86.30;;;;;;5089373;27;20393;-70
2023/12/31 04:12:46;;;;;;;;;;;5.90;86.20;;;;;;5106466;28;19959;-71
2023/12/31 04:15:20;;;;;;;;;;;5.90;86.20;;;;;;5107996;28;19931;-70
2023/12/31 04:17:56;;;;;;;;;;;5.90;86.30;;;;;;5103846;28;20363;-72
2023/12/31 04:20:29;;;;;;;;;;;5.90;86.20;;;;;;5105392;28;19993;-70
2023/12/31 04:23:03;;;;;;;;;;;5.90;86.30;;;;;;5108229;28;20042;-73
2023/12/31 04:25:36;;;;;;;;;;;5.90;86.30;;;;;;5106933;28;19928;-71
2023/12/31 04:28:09;;;;;;;;;;;5.90;86.40;;;;;;5109038;28;19927;-73
2023/12/31 04:30:43;;;;;;;;;;;5.90;86.30;;;;;;5107766;28;19924;-70
2023/12/31 04:33:17;;;;;;;;;;;5.90;86.30;;;;;;5108874;28;20026;-72
2023/12/31 04:35:50;;;;;;;;;;;6.00;86.40;;;;;;5108176;28;20886;-70
2023/12/31 04:38:17;;;;;;;;;;;6.00;86.40;;;;;;5107837;28;19928;-72
2023/12/31 04:40:50;;;;;;;;;;;6.00;86.40;;;;;;5084719;28;20011;-72
2023/12/31 04:43:23;;;;;;;;;;;6.10;86.30;;;;;;5107128;28;19930;-72
2023/12/31 04:45:57;;;;;;;;;;;6.00;86.30;;;;;;5089498;28;19924;-70
2023/12/31 04:48:31;;;;;;;;;;;6.00;86.30;;;;;;5081016;28;19977;-72
2023/12/31 04:51:04;;;;;;;;;;;6.00;86.30;;;;;;5109143;28;19934;-71
2023/12/31 04:53:37;;;;;;;;;;;6.00;86.30;;;;;;5107530;28;19952;-71
2023/12/31 04:56:18;;;;;;;;;;;6.00;86.20;;;;;;5106539;28;19928;-71
2023/12/31 04:58:51;;;;;;;;;;;6.00;86.20;;;;;;5109129;28;20366;-71
2023/12/31 05:01:31;;;;;;;;;;;6.00;86.20;;;;;;5107261;28;20026;-71
2023/12/31 05:04:05;;;;;;;;;;;6.10;86.30;;;;;;5108368;28;20018;-70
2023/12/31 05:06:31;;;;;;;;;;;6.00;86.40;;;;;;5108215;28;19931;-71
2023/12/31 05:09:08;;;;;;;;;;;6.10;86.40;;;;;;5108181;28;20454;-72
2023/12/31 05:11:41;;;;;;;;;;;6.10;86.50;;;;;;5108295;28;19924;-71
2023/12/31 05:14:14;;;;;;;;;;;6.00;86.50;;;;;;5106507;28;19934;-71
2023/12/31 05:16:48;;;;;;;;;;;6.00;86.60;;;;;;5107128;27;20413;-71
2023/12/31 05:19:15;;;;;;;;;;;6.00;86.70;;;;;;5108265;28;19928;-70
2023/12/31 05:21:48;;;;;;;;;;;6.10;86.70;;;;;;5096594;28;19939;-71
2023/12/31 05:24:21;;;;;;;;;;;6.10;86.70;;;;;;5087969;28;19928;-71
2023/12/31 05:26:54;;;;;;;;;;;6.10;86.70;;;;;;5097465;27;19928;-71
2023/12/31 05:29:27;;;;;;;;;;;6.10;86.60;;;;;;5102477;28;19928;-71
2023/12/31 05:32:02;;;;;;;;;;;6.10;86.60;;;;;;5107506;28;19924;-70
2023/12/31 05:34:36;;;;;;;;;;;6.10;86.70;;;;;;5109678;28;19950;-70
2023/12/31 05:37:09;;;;;;;;;;;6.10;86.60;;;;;;5111046;28;19970;-71
2023/12/31 05:39:42;;;;;;;;;;;6.10;86.60;;;;;;5111229;28;19927;-70
2023/12/31 05:42:15;;;;;;;;;;;6.10;86.70;;;;;;5111776;28;20015;-71
2023/12/31 05:44:48;;;;;;;;;;;6.10;86.70;;;;;;5112565;28;19981;-70
2023/12/31 05:47:22;;;;;;;;;;;6.10;86.60;;;;;;5108971;28;20377;-72
2023/12/31 05:49:49;;;;;;;;;;;6.20;86.70;;;;;;5111678;28;19930;-70
2023/12/31 05:52:22;;;;;;;;;;;6.20;86.60;;;;;;5112567;27;20023;-70
2023/12/31 05:54:55;;;;;;;;;;;6.20;86.60;;;;;;5110239;28;20058;-71
2023/12/31 05:57:28;;;;;;;;;;;6.20;86.50;;;;;;5109553;28;19932;-70
2023/12/31 06:00:02;;;;;;;;;;;6.20;86.40;;;;;;5111656;27;20016;-71
2023/12/31 06:02:42;;;;;;;;;;;6.20;86.40;;;;;;5109993;27;19924;-70
2023/12/31 06:05:16;;;;;;;;;;;6.30;86.30;;;;;;5111597;28;20002;-70
2023/12/31 06:07:49;;;;;;;;;;;6.30;86.40;;;;;;5108770;28;20388;-72
2023/12/31 06:10:22;;;;;;;;;;;6.20;86.40;;;;;;5112576;28;19924;-70
2023/12/31 06:12:55;;;;;;;;;;;6.20;86.50;;;;;;5111066;27;20007;-71
2023/12/31 06:15:28;;;;;;;;;;;6.20;86.50;;;;;;5103602;28;19930;-72
2023/12/31 06:18:02;;;;;;;;;;;6.30;86.50;;;;;;5109533;27;19932;-71
2023/12/31 06:20:36;;;;;;;;;;;6.20;86.40;;;;;;5110994;28;20022;-71
2023/12/31 06:23:09;;;;;;;;;;;6.30;86.40;;;;;;5110745;28;19928;-62
2023/12/31 06:25:42;;;;;;;;;;;6.30;86.30;;;;;;5108648;28;19932;-62
2023/12/31 06:28:15;;;;;;;;;;;6.30;86.20;;;;;;5110365;27;19934;-63
2023/12/31 06:30:48;;;;;;;;;;;6.20;86.30;;;;;;5108169;28;19928;-61
2023/12/31 06:33:24;;;;;;;;;;;6.20;86.30;;;;;;5110518;28;19973;-62
2023/12/31 06:35:57;;;;;;;;;;;6.30;86.30;;;;;;5109993;28;19976;-62
2023/12/31 06:38:30;;;;;;;;;;;6.30;86.20;;;;;;5109565;28;19967;-62
2023/12/31 06:41:06;;;;;;;;;;;6.20;86.30;;;;;;5109826;28;19927;-61
2023/12/31 06:43:40;;;;;;;;;;;6.30;86.30;;;;;;5109618;28;20020;-61
2023/12/31 06:46:14;;;;;;;;;;;6.30;86.20;;;;;;5109263;27;19928;-63
2023/12/31 06:48:48;;;;;;;;;;;6.40;86.10;;;;;;5108576;28;19931;-63
2023/12/31 06:51:22;;;;;;;;;;;6.40;86.00;;;;;;5110727;28;19932;-62
2023/12/31 06:53:57;;;;;;;;;;;6.40;86.00;;;;;;5110121;28;19927;-63
2023/12/31 06:56:30;;;;;;;;;;;6.40;85.90;;;;;;5107290;28;19923;-61
2023/12/31 06:59:04;;;;;;;;;;;6.40;85.80;;;;;;5110617;28;19928;-62
2023/12/31 07:01:37;;;;;;;;;;;6.40;85.80;;;;;;5109735;28;19936;-60
2023/12/31 07:04:12;;;;;;;;;;;6.40;85.80;;;;;;5111660;28;19955;-62
2023/12/31 07:06:45;;;;;;;;;;;6.40;85.90;;;;;;5110334;28;19927;-62
2023/12/31 07:09:18;;;;;;;;;;;6.40;85.90;;;;;;5109362;28;19923;-63
2023/12/31 07:11:51;;;;;;;;;;;6.40;85.80;;;;;;5108066;28;19931;-61
2023/12/31 07:14:24;;;;;;;;;;;6.40;85.70;;;;;;5109188;27;20015;-64
2023/12/31 07:16:57;;;;;;;;;;;6.40;85.80;;;;;;5108730;28;20378;-61
2023/12/31 07:19:31;;;;;;;;;;;6.40;85.70;;;;;;5109793;28;19928;-63
2023/12/31 07:22:05;;;;;;;;;;;6.50;85.60;;;;;;5108692;28;19954;-61
2023/12/31 07:24:40;;;;;;;;;;;6.50;85.60;;;;;;5108868;28;19924;-62
2023/12/31 07:27:13;;;;;;;;;;;6.50;85.60;;;;;;5108273;27;20030;-63
2023/12/31 07:29:46;;;;;;;;;;;6.40;85.50;;;;;;5099176;28;19927;-62
2023/12/31 07:32:13;;;;;;;;;;;6.40;85.30;;;;;;5090711;28;19927;-62
2023/12/31 07:34:47;;;;;;;;;;;6.40;85.50;;;;;;5108538;28;20435;-62
2023/12/31 07:37:20;;;;;;;;;;;6.40;85.40;;;;;;5109259;28;19963;-62
2023/12/31 07:39:53;;;;;;;;;;;6.50;85.40;;;;;;5108536;28;19927;-61
2023/12/31 07:42:26;;;;;;;;;;;6.40;85.30;;;;;;5109478;28;19934;-63
2023/12/31 07:44:59;;;;;;;;;;;6.40;85.20;;;;;;5107649;28;20014;-63
2023/12/31 07:47:35;;;;;;;;;;;6.40;85.20;;;;;;5109218;28;19923;-63
2023/12/31 07:50:10;;;;;;;;;;;6.50;85.20;;;;;;5108117;28;20007;-63
2023/12/31 07:52:43;;;;;;;;;;;6.50;85.20;;;;;;5107991;28;19939;-64
2023/12/31 07:55:16;;;;;;;;;;;6.50;85.10;;;;;;5107325;28;19951;-63
2023/12/31 07:57:49;;;;;;;;;;;6.50;85.10;;;;;;5107235;28;20393;-64
2023/12/31 08:00:27;;;;;;;;;;;6.50;85.10;;;;;;5107664;28;19963;-62
2023/12/31 08:03:00;;;;;;;;;;;6.50;85.10;;;;;;5107063;28;19927;-63
2023/12/31 08:05:34;;;;;;;;;;;6.50;85.10;;;;;;5109520;28;19924;-62
2023/12/31 08:08:11;;;;;;;;;;;6.50;85.00;;;;;;5107106;28;20405;-63
2023/12/31 08:10:44;;;;;;;;;;;6.50;85.00;;;;;;5108657;28;19947;-62
2023/12/31 08:13:17;;;;;;;;;;;6.60;85.00;;;;;;5108130;27;19966;-62
2023/12/31 08:15:50;;;;;;;;;;;6.50;85.00;;;;;;5107771;28;19930;-63
2023/12/31 08:18:23;;;;;;;;;;;6.50;85.00;;;;;;5108003;28;19924;-63
2023/12/31 08:20:57;;;;;;;;;;;6.50;85.00;;;;;;5107166;28;20457;-62
2023/12/31 08:23:31;;;;;;;;;;;6.60;85.00;;;;;;5108924;27;19932;-63
2023/12/31 08:26:04;;;;;;;;;;;6.60;84.80;;;;;;5107717;28;19933;-63
2023/12/31 08:28:37;;;;;;;;;;;6.60;84.70;;;;;;5107627;28;20006;-63
2023/12/31 08:31:12;;;;;;;;;;;6.60;84.60;;;;;;5108056;28;20400;-63
2023/12/31 08:33:46;;;;;;;;;;;6.60;84.60;;;;;;5107030;28;20011;-63
2023/12/31 08:36:20;;;;;;;;;;;6.60;84.60;;;;;;5107064;28;20003;-63
2023/12/31 08:38:47;;;;;;;;;;;6.60;84.60;;;;;;5106858;28;19931;-62
2023/12/31 08:41:20;;;;;;;;;;;6.70;84.50;;;;;;5106548;28;20447;-64
2023/12/31 08:43:54;;;;;;;;;;;6.70;84.40;;;;;;5106175;28;20366;-62
2023/12/31 08:46:30;;;;;;;;;;;6.70;84.30;;;;;;5107901;28;19977;-64
2023/12/31 08:49:05;;;;;;;;;;;6.70;84.20;;;;;;5091228;27;19936;-62
2023/12/31 08:51:39;;;;;;;;;;;6.70;84.20;;;;;;5093137;28;20640;-62
2023/12/31 08:54:13;;;;;;;;;;;6.80;84.10;;;;;;5102897;28;19928;-63
2023/12/31 08:56:46;;;;;;;;;;;6.80;84.10;;;;;;5088900;28;19935;-63
2023/12/31 08:59:19;;;;;;;;;;;6.80;84.00;;;;;;5107672;28;19934;-62
2023/12/31 09:01:53;;;;;;;;;;;6.90;83.90;;;;;;5098467;28;19934;-63
2023/12/31 09:04:28;;;;;;;;;;;6.90;83.80;;;;;;5106325;28;20002;-63
2023/12/31 09:07:02;;;;;;;;;;;6.90;83.70;;;;;;5099936;28;19973;-62
2023/12/31 09:09:43;;;;;;;;;;;6.90;83.70;;;;;;5086831;28;20020;-63
2023/12/31 09:12:16;;;;;;;;;;;6.90;83.70;;;;;;5109512;28;19931;-63
2023/12/31 09:14:49;;;;;;;;;;;7.00;83.50;;;;;;5113586;28;19948;-63
2023/12/31 09:17:23;;;;;;;;;;;7.00;83.40;;;;;;5112056;28;20287;-62
2023/12/31 09:19:56;;;;;;;;;;;7.10;83.40;;;;;;5111974;28;19924;-63
2023/12/31 09:22:38;;;;;;;;;;;7.10;83.30;;;;;;5111930;28;20500;-62
2023/12/31 09:25:11;;;;;;;;;;;7.20;83.10;;;;;;5113236;28;19927;-62
2023/12/31 09:27:45;;;;;;;;;;;7.20;83.20;;;;;;5111334;28;19934;-63
2023/12/31 09:30:19;;;;;;;;;;;7.20;83.20;;;;;;5111022;28;19924;-62
2023/12/31 09:32:52;;;;;;;;;;;7.20;83.20;;;;;;5111498;28;19927;-62
2023/12/31 09:35:25;;;;;;;;;;;7.20;83.10;;;;;;5110182;28;19928;-63
2023/12/31 09:37:59;;;;;;;;;;;7.20;83.20;;;;;;5110544;28;19928;-62
2023/12/31 09:40:26;;;;;;;;;;;7.20;83.10;;;;;;5102853;28;19932;-62
2023/12/31 09:42:59;;;;;;;;;;;7.30;83.20;;;;;;5111596;27;20294;-63
2023/12/31 09:45:34;;;;;;;;;;;7.30;83.20;;;;;;5108998;28;19993;-63
2023/12/31 09:48:07;;;;;;;;;;;7.30;83.30;;;;;;5111126;27;20014;-64
2023/12/31 09:50:41;;;;;;;;;;;7.30;83.40;;;;;;5111119;28;19927;-63
2023/12/31 09:53:16;;;;;;;;;;;7.40;83.40;;;;;;5084709;28;20382;-62
2023/12/31 09:55:50;;;;;;;;;;;7.40;83.50;;;;;;5106249;28;19928;-62
2023/12/31 09:58:18;;;;;;;;;;;7.40;83.30;;;;;;5110363;27;19928;-63
2023/12/31 10:00:52;;;;;;;;;;;7.50;83.30;;;;;;5111608;28;19928;-62
2023/12/31 10:03:27;;;;;;;;;;;7.50;83.30;;;;;;5111300;28;19935;-64
2023/12/31 10:06:00;;;;;;;;;;;7.50;83.10;;;;;;5108954;28;19949;-62
2023/12/31 10:08:35;;;;;;;;;;;7.60;83.20;;;;;;5111430;27;19967;-62
2023/12/31 10:11:08;;;;;;;;;;;7.60;82.90;;;;;;5110743;28;20159;-63
2023/12/31 10:13:41;;;;;;;;;;;7.60;82.80;;;;;;5112149;28;19924;-63
2023/12/31 10:16:15;;;;;;;;;;;7.70;82.80;;;;;;5109341;28;19924;-62
2023/12/31 10:18:48;;;;;;;;;;;7.70;82.60;;;;;;5109395;27;19924;-62
2023/12/31 10:21:21;;;;;;;;;;;7.70;82.30;;;;;;5111381;28;19924;-63
2023/12/31 10:23:55;;;;;;;;;;;7.70;82.10;;;;;;5097153;28;19934;-62
2023/12/31 10:26:29;;;;;;;;;;;7.70;82.20;;;;;;5091083;28;19927;-61
2023/12/31 10:29:04;;;;;;;;;;;7.70;82.40;;;;;;5090605;28;19932;-61
2023/12/31 10:31:37;;;;;;;;;;;7.70;82.30;;;;;;5090733;28;19928;-62
2023/12/31 10:34:14;;;;;;;;;;;7.70;82.20;;;;;;5090300;28;19928;-63
2023/12/31 10:36:48;;;;;;;;;;;7.70;82.20;;;;;;5090103;28;19982;-61
2023/12/31 10:39:29;;;;;;;;;;;7.70;82.20;;;;;;5089523;28;20007;-62
2023/12/31 10:42:04;;;;;;;;;;;7.70;82.20;;;;;;5093927;28;19947;-63
2023/12/31 10:44:39;;;;;;;;;;;7.70;82.30;;;;;;5111104;28;20027;-62
2023/12/31 10:47:15;;;;;;;;;;;7.70;82.20;;;;;;5110827;28;20382;-61
2023/12/31 10:49:49;;;;;;;;;;;7.80;82.20;;;;;;5109407;28;19927;-63
2023/12/31 10:52:23;;;;;;;;;;;7.80;82.20;;;;;;5110247;28;20398;-63
2023/12/31 10:54:58;;;;;;;;;;;7.80;82.10;;;;;;5089571;28;20456;-61
2023/12/31 10:57:31;;;;;;;;;;;7.80;82.10;;;;;;5089106;28;19927;-63
2023/12/31 11:00:05;;;;;;;;;;;7.70;82.10;;;;;;5090191;28;19928;-62
2023/12/31 11:02:38;;;;;;;;;;;7.80;82.10;;;;;;5089161;28;19924;-62
2023/12/31 11:05:11;;;;;;;;;;;7.80;82.30;;;;;;5090436;28;19924;-63
2023/12/31 11:07:46;;;;;;;;;;;7.80;82.50;;;;;;5088638;28;19924;-61
2023/12/31 11:10:21;;;;;;;;;;;7.70;82.60;;;;;;5088221;28;19928;-61
2023/12/31 11:12:54;;;;;;;;;;;7.80;82.70;;;;;;5088518;28;19947;-61
2023/12/31 11:15:27;;;;;;;;;;;7.80;82.90;;;;;;5090267;28;19928;-60
2023/12/31 11:18:23;;;;;;;;;;;7.70;83.10;;;;;;5109385;27;19931;-61
2023/12/31 11:21:08;;;;;;;;;;;7.70;83.10;;;;;;5108567;28;19924;-61
2023/12/31 11:23:46;;;;;;;;;;;7.70;83.30;;;;;;5108817;27;19924;-62
2023/12/31 11:26:20;;;;;;;;;;;7.70;83.20;;;;;;5108307;28;19935;-61
2023/12/31 11:28:54;;;;;;;;;;;7.70;83.10;;;;;;5107105;28;19946;-60
2023/12/31 11:31:28;;;;;;;;;;;7.70;83.20;;;;;;5106099;28;19930;-61
2023/12/31 11:34:01;;;;;;;;;;;7.80;83.20;;;;;;5109644;28;19970;-62
2023/12/31 11:36:34;;;;;;;;;;;7.70;83.00;;;;;;5109006;28;19923;-61
2023/12/31 11:39:14;;;;;;;;;;;7.70;82.80;;;;;;5107811;28;19943;-61
2023/12/31 11:42:05;;;;;;;;;;;7.80;82.60;;;;;;5089136;28;21356;-61
2023/12/31 11:44:46;;;;;;;;;;;7.70;82.70;;;;;;5089554;28;20272;-62
2023/12/31 11:47:21;;;;;;;;;;;7.80;83.00;;;;;;5089108;28;19973;-60
2023/12/31 11:49:54;;;;;;;;;;;7.70;83.20;;;;;;5086106;28;20282;-61
2023/12/31 11:52:32;;;;;;;;;;;7.80;83.40;;;;;;5090929;28;19973;-60
2023/12/31 11:55:10;;;;;;;;;;;7.80;83.50;;;;;;5100751;28;20055;-62
2023/12/31 11:57:46;;;;;;;;;;;7.70;83.70;;;;;;5107767;28;19928;-60
2023/12/31 12:00:20;;;;;;;;;;;7.70;83.80;;;;;;5101647;28;19923;-60
2023/12/31 12:02:53;;;;;;;;;;;7.70;84.20;;;;;;5097812;28;20030;-60
2023/12/31 12:05:26;;;;;;;;;;;7.70;84.60;;;;;;5107473;28;19930;-61
2023/12/31 12:08:01;;;;;;;;;;;7.70;84.70;;;;;;5108201;28;19934;-61
2023/12/31 12:10:34;;;;;;;;;;;7.70;84.70;;;;;;5109320;27;19928;-60
2023/12/31 12:13:08;;;;;;;;;;;7.70;84.80;;;;;;5108106;28;19939;-61
2023/12/31 12:15:42;;;;;;;;;;;7.70;84.90;;;;;;5108652;27;19967;-61
2023/12/31 12:18:16;;;;;;;;;;;7.70;85.00;;;;;;5108100;28;19931;-61
2023/12/31 12:20:49;;;;;;;;;;;7.70;85.10;;;;;;5108100;28;20003;-62
2023/12/31 12:23:22;;;;;;;;;;;7.70;85.60;;;;;;5107249;28;19934;-61
2023/12/31 12:25:58;;;;;;;;;;;7.70;85.90;;;;;;5108082;28;19928;-61
2023/12/31 12:28:33;;;;;;;;;;;7.70;86.00;;;;;;5108565;28;20022;-63
2023/12/31 12:31:07;;;;;;;;;;;7.70;86.40;;;;;;5106988;28;19924;-62
2023/12/31 12:33:42;;;;;;;;;;;7.70;86.60;;;;;;5108633;27;19931;-62
2023/12/31 12:36:17;;;;;;;;;;;7.70;86.40;;;;;;5089009;28;20290;-62
2023/12/31 12:38:50;;;;;;;;;;;7.80;87.30;;;;;;5087026;28;19938;-63
2023/12/31 12:41:23;;;;;;;;;;;7.90;87.60;;;;;;5089460;28;20367;-61
2023/12/31 12:43:58;;;;;;;;;;;7.90;87.60;;;;;;5108205;28;19972;-60
2023/12/31 12:46:33;;;;;;;;;;;8.00;87.70;;;;;;5107821;28;20026;-64
2023/12/31 12:49:06;;;;;;;;;;;8.10;87.80;;;;;;5108469;28;19928;-61
2023/12/31 12:51:34;;;;;;;;;;;8.10;87.80;;;;;;5106158;28;19934;-62
2023/12/31 12:54:07;;;;;;;;;;;8.20;87.80;;;;;;5108337;28;20320;-62
2023/12/31 12:56:40;;;;;;;;;;;8.20;87.70;;;;;;5108407;28;19923;-63
2023/12/31 12:59:14;;;;;;;;;;;8.20;87.80;;;;;;5107373;28;19931;-63
2023/12/31 13:01:48;;;;;;;;;;;8.30;87.80;;;;;;5090554;27;20375;-63
2023/12/31 13:04:21;;;;;;;;;;;8.30;87.80;;;;;;5092680;27;20394;-63
2023/12/31 13:06:57;;;;;;;;;;;8.40;87.90;;;;;;5089619;27;19963;-63
2023/12/31 13:09:35;;;;;;;;;;;8.40;87.90;;;;;;5089982;27;19935;-63
2023/12/31 13:12:09;;;;;;;;;;;8.40;87.90;;;;;;5090792;27;19924;-62
2023/12/31 13:14:44;;;;;;;;;;;8.40;88.00;;;;;;5090656;27;19928;-61
2023/12/31 13:17:18;;;;;;;;;;;8.50;88.00;;;;;;5089093;28;19924;-63
2023/12/31 13:19:54;;;;;;;;;;;8.40;88.10;;;;;;5087775;28;19969;-62
2023/12/31 13:22:27;;;;;;;;;;;8.50;88.10;;;;;;5087904;28;19938;-62
2023/12/31 13:25:00;;;;;;;;;;;8.60;88.10;;;;;;5088819;28;19930;-59
2023/12/31 13:27:34;;;;;;;;;;;8.60;88.10;;;;;;5087172;28;19960;-58
2023/12/31 13:30:09;;;;;;;;;;;8.50;88.10;;;;;;5089332;28;19928;-58
2023/12/31 13:32:43;;;;;;;;;;;8.50;88.00;;;;;;5081641;28;19931;-60
2023/12/31 13:35:16;;;;;;;;;;;8.60;88.00;;;;;;5108484;28;19927;-58
2023/12/31 13:37:49;;;;;;;;;;;8.50;88.00;;;;;;5109494;28;19928;-60
2023/12/31 13:40:22;;;;;;;;;;;8.50;88.00;;;;;;5107184;28;20022;-60
2023/12/31 13:42:49;;;;;;;;;;;8.60;87.90;;;;;;5107835;28;20010;-62
2023/12/31 13:45:23;;;;;;;;;;;8.60;87.90;;;;;;5108760;28;20309;-60
2023/12/31 13:47:57;;;;;;;;;;;8.60;87.80;;;;;;5107832;28;19972;-60
2023/12/31 13:50:30;;;;;;;;;;;8.60;87.80;;;;;;5113538;28;20374;-61
2023/12/31 13:53:04;;;;;;;;;;;8.60;87.70;;;;;;5111220;28;19946;-64
2023/12/31 13:55:37;;;;;;;;;;;8.60;87.60;;;;;;5114556;28;20547;-61
2023/12/31 13:58:10;;;;;;;;;;;8.60;87.50;;;;;;5115762;28;20370;-62
2023/12/31 14:00:50;;;;;;;;;;;8.60;87.60;;;;;;5116622;28;19924;-61
2023/12/31 14:03:23;;;;;;;;;;;8.60;87.50;;;;;;5115692;28;19931;-69
2023/12/31 14:05:57;;;;;;;;;;;8.60;87.50;;;;;;5113239;28;19924;-59
2023/12/31 14:08:30;;;;;;;;;;;8.60;87.50;;;;;;5097150;28;19932;-59
2023/12/31 14:11:03;;;;;;;;;;;8.60;87.40;;;;;;5094366;28;19928;-60
2023/12/31 14:13:36;;;;;;;;;;;8.50;87.40;;;;;;5096322;28;19955;-61
2023/12/31 14:16:11;;;;;;;;;;;8.60;87.40;;;;;;5093233;28;19955;-62
2023/12/31 14:18:44;;;;;;;;;;;8.60;87.30;;;;;;5091157;28;19932;-60
2023/12/31 14:21:17;;;;;;;;;;;8.60;87.20;;;;;;5090403;28;20363;-60
2023/12/31 14:23:50;;;;;;;;;;;8.60;87.20;;;;;;5088227;28;19924;-59
2023/12/31 14:26:23;;;;;;;;;;;8.50;87.20;;;;;;5090484;28;20023;-60
2023/12/31 14:28:57;;;;;;;;;;;8.60;87.10;;;;;;5089528;28;19955;-62
2023/12/31 14:31:32;;;;;;;;;;;8.60;87.00;;;;;;5091285;28;20011;-60
2023/12/31 14:34:05;;;;;;;;;;;8.60;86.80;;;;;;5084039;27;20004;-62
2023/12/31 14:36:38;;;;;;;;;;;8.60;86.70;;;;;;5088189;28;19928;-59
2023/12/31 14:39:18;;;;;;;;;;;8.60;86.60;;;;;;5088565;28;20008;-61
2023/12/31 14:41:51;;;;;;;;;;;8.60;86.60;;;;;;5088463;28;19924;-60
2023/12/31 14:44:25;;;;;;;;;;;8.50;86.50;;;;;;5089847;28;19925;-59
2023/12/31 14:47:00;;;;;;;;;;;8.50;86.50;;;;;;5089259;28;19970;-62
2023/12/31 14:49:33;;;;;;;;;;;8.60;86.30;;;;;;5089110;28;20039;-61
2023/12/31 14:52:06;;;;;;;;;;;8.60;86.30;;;;;;5088548;28;19931;-61
2023/12/31 14:54:39;;;;;;;;;;;8.50;86.10;;;;;;5088577;28;20408;-61
2023/12/31 14:57:12;;;;;;;;;;;8.60;86.10;;;;;;5089122;28;20015;-60
2023/12/31 14:59:45;;;;;;;;;;;8.60;86.10;;;;;;5089966;28;20382;-61
2023/12/31 15:02:20;;;;;;;;;;;8.60;86.10;;;;;;5089321;28;20027;-61
2023/12/31 15:04:53;;;;;;;;;;;8.60;86.00;;;;;;5088117;28;20291;-60
2023/12/31 15:07:26;;;;;;;;;;;8.60;86.00;;;;;;5089226;27;19955;-61
2023/12/31 15:09:59;;;;;;;;;;;8.50;86.00;;;;;;5089374;28;20336;-61